createdAt,value
2022-10-01T00:17:16.409Z,5.41
2022-10-01T00:36:05.240Z,5.55
2022-10-01T00:57:17.269Z,5.68
2022-10-01T01:17:35.844Z,5.58
2022-10-01T01:36:49.933Z,5.53
2022-10-01T01:56:50.750Z,5.59
2022-10-01T02:17:09.751Z,5.77
2022-10-01T02:36:44.694Z,5.94
2022-10-01T02:57:24.009Z,6.05
2022-10-01T03:17:16.071Z,6.13
2022-10-01T03:36:26.386Z,6.26
2022-10-01T03:56:51.117Z,6.45
2022-10-01T04:17:22.483Z,6.81
2022-10-01T04:36:31.843Z,6.93
2022-10-01T04:56:14.212Z,6.95
2022-10-01T05:17:09.003Z,7.14
2022-10-01T05:37:39.360Z,7.22
2022-10-01T05:57:46.196Z,7.26
2022-10-01T06:36:53.624Z,7.84
2022-10-01T06:56:57.513Z,8.12
2022-10-01T07:17:45.966Z,8.03
2022-10-01T07:36:26.720Z,8.01
2022-10-01T07:57:35.042Z,7.94
2022-10-01T08:17:52.234Z,7.85
2022-10-01T08:36:54.173Z,7.86
2022-10-01T08:56:51.519Z,8.03
2022-10-01T09:16:51.896Z,8.18
2022-10-01T09:37:39.795Z,8.26
2022-10-01T09:57:00.811Z,8.31
2022-10-01T10:17:11.127Z,8.4
2022-10-01T10:37:39.204Z,8.52
2022-10-01T10:57:01.631Z,8.6
2022-10-01T11:16:47.498Z,8.78
2022-10-01T11:36:10.507Z,8.98
2022-10-01T11:56:21.489Z,9.18
2022-10-01T12:17:22.860Z,9.48
2022-10-01T12:36:15.378Z,9.69
2022-10-01T12:56:08.954Z,9.86
2022-10-01T13:16:14.638Z,10.07
2022-10-01T13:36:46.401Z,10.2
2022-10-01T13:56:19.962Z,10.38
2022-10-01T14:16:43.785Z,10.51
2022-10-01T14:36:31.642Z,10.92
2022-10-01T14:56:33.793Z,11.04
2022-10-01T15:16:30.528Z,11.15
2022-10-01T15:36:47.719Z,11.14
2022-10-01T15:57:16.138Z,11.18
2022-10-01T16:17:18.182Z,11.17
2022-10-01T16:37:18.949Z,11.17
2022-10-01T16:57:29.870Z,11.12
2022-10-01T17:16:25.753Z,10.33
2022-10-01T17:36:05.419Z,9.73
2022-10-01T17:57:25.980Z,9.51
2022-10-01T18:17:19.594Z,9.19
2022-10-01T18:36:54.885Z,8.98
2022-10-01T18:57:52.666Z,8.6
2022-10-01T19:16:34.020Z,8.3
2022-10-01T19:37:01.902Z,8.15
2022-10-01T19:57:31.127Z,8.21
2022-10-01T20:16:12.826Z,8.14
2022-10-01T20:37:13.843Z,8.2
2022-10-01T20:57:26.469Z,7.96
2022-10-01T21:16:15.123Z,7.81
2022-10-01T21:36:44.219Z,7.6
2022-10-01T21:57:25.964Z,7.42
2022-10-01T22:17:15.463Z,7.38
2022-10-01T22:36:48.455Z,7.36
2022-10-01T22:58:15.145Z,7.34
2022-10-01T23:16:42.188Z,7.15
2022-10-01T23:36:05.864Z,7.06
2022-10-01T23:56:28.458Z,6.89
